Time;durP1;ratioP1;P1;durP2;ratioP2;P2;SDS_P1;SDS_P2;PMS_P1;PMS_P2;Temp;Humidity;BMP_temperature;BMP_pressure;BME280_temperature;BME280_humidity;BME280_pressure;Samples;Min_cycle;Max_cycle;Signal;HPM_P1;HPM_P2
2021/08/13 00:02:04;;;;;;;22.83;18.52;;;;;;;;;;5019268;28;20554;-68
2021/08/13 00:04:29;;;;;;;28.05;18.83;;;;;;;;;;5019991;28;20650;-68
2021/08/13 00:06:55;;;;;;;23.92;20.15;;;;;;;;;;5012474;28;20186;-68
2021/08/13 00:09:22;;;;;;;22.13;17.88;;;;;;;;;;5016794;28;20301;-68
2021/08/13 00:11:48;;;;;;;26.23;19.48;;;;;;;;;;5013608;28;20216;-68
2021/08/13 00:14:13;;;;;;;25.33;20.13;;;;;;;;;;5018478;28;20190;-68
2021/08/13 00:16:39;;;;;;;25.27;20.75;;;;;;;;;;5018401;28;20226;-68
2021/08/13 00:19:04;;;;;;;26.48;21.00;;;;;;;;;;5024464;28;20196;-68
2021/08/13 00:21:31;;;;;;;27.27;21.17;;;;;;;;;;5017356;28;20661;-68
2021/08/13 00:23:57;;;;;;;24.20;19.30;;;;;;;;;;5021246;28;20232;-68
2021/08/13 00:26:22;;;;;;;26.42;20.17;;;;;;;;;;5012505;28;20218;-68
2021/08/13 00:28:48;;;;;;;30.65;21.13;;;;;;;;;;5018496;28;20548;-68
2021/08/13 00:31:13;;;;;;;25.17;19.27;;;;;;;;;;5012628;28;20646;-68
2021/08/13 00:33:39;;;;;;;20.65;17.55;;;;;;;;;;5011120;28;20194;-68
2021/08/13 00:36:04;;;;;;;24.88;19.23;;;;;;;;;;5021709;28;20634;-68
2021/08/13 00:38:30;;;;;;;32.33;20.67;;;;;;;;;;5015221;28;20676;-68
2021/08/13 00:40:55;;;;;;;25.05;20.88;;;;;;;;;;5022840;28;20269;-68
2021/08/13 00:43:20;;;;;;;27.20;21.08;;;;;;;;;;5015130;28;20273;-68
2021/08/13 00:45:46;;;;;;;24.92;19.77;;;;;;;;;;5018331;28;20257;-68
2021/08/13 00:48:11;;;;;;;25.27;20.00;;;;;;;;;;5010168;28;20199;-68
2021/08/13 00:50:37;;;;;;;27.45;19.45;;;;;;;;;;5026529;28;20505;-68
2021/08/13 00:53:03;;;;;;;21.92;19.05;;;;;;;;;;5013470;28;20336;-68
2021/08/13 00:55:29;;;;;;;21.23;18.27;;;;;;;;;;5025821;28;20186;-68
2021/08/13 00:57:54;;;;;;;23.60;18.70;;;;;;;;;;5018432;28;20676;-68
2021/08/13 01:00:20;;;;;;;20.73;18.48;;;;;;;;;;5025105;28;20287;-68
2021/08/13 01:02:47;;;;;;;22.33;17.55;;;;;;;;;;5021586;28;20210;-68
2021/08/13 01:05:12;;;;;;;21.65;17.48;;;;;;;;;;5016497;28;20245;-68
2021/08/13 01:07:38;;;;;;;25.58;18.40;;;;;;;;;;5023918;28;20658;-68
2021/08/13 01:10:05;;;;;;;22.10;18.75;;;;;;;;;;5015567;28;20224;-68
2021/08/13 01:13:01;;;;;;;23.15;18.67;;;;;;;;;;5024519;28;20193;-68
2021/08/13 01:15:32;;;;;;;27.23;20.08;;;;;;;;;;5014961;28;20184;-68
2021/08/13 01:17:58;;;;;;;24.80;19.55;;;;;;;;;;5023587;28;20187;-68
2021/08/13 01:20:42;;;;;;;22.92;19.70;;;;;;;;;;5017807;28;20311;-68
2021/08/13 01:23:17;;;;;;;25.65;20.45;;;;;;;;;;5019258;28;20266;-68
2021/08/13 01:25:47;;;;;;;21.88;17.88;;;;;;;;;;5018371;28;20300;-68
2021/08/13 01:28:33;;;;;;;25.95;18.77;;;;;;;;;;5017936;28;20201;-68
2021/08/13 01:31:03;;;;;;;22.20;19.20;;;;;;;;;;5013626;28;20194;-68
2021/08/13 01:33:30;;;;;;;27.90;20.77;;;;;;;;;;5024290;28;20721;-69
2021/08/13 01:35:56;;;;;;;26.77;22.00;;;;;;;;;;5016445;28;20748;-68
2021/08/13 01:38:26;;;;;;;27.20;22.40;;;;;;;;;;5026725;28;20181;-68
2021/08/13 01:40:56;;;;;;;26.20;22.15;;;;;;;;;;5019712;28;20526;-68
2021/08/13 01:43:24;;;;;;;29.98;23.10;;;;;;;;;;5026389;28;20642;-68
2021/08/13 01:45:51;;;;;;;26.80;21.42;;;;;;;;;;5015949;28;20567;-68
2021/08/13 01:48:19;;;;;;;27.27;20.95;;;;;;;;;;5024623;28;20186;-68
2021/08/13 01:50:45;;;;;;;28.67;21.55;;;;;;;;;;5021664;28;20320;-68
2021/08/13 01:53:12;;;;;;;26.38;20.60;;;;;;;;;;5023069;28;20186;-68
2021/08/13 01:55:38;;;;;;;27.13;20.13;;;;;;;;;;5009668;28;20265;-68
2021/08/13 01:58:04;;;;;;;24.20;20.92;;;;;;;;;;5027138;28;20659;-68
2021/08/13 02:00:30;;;;;;;27.55;20.83;;;;;;;;;;5024041;28;20233;-69
2021/08/13 02:02:56;;;;;;;28.08;20.95;;;;;;;;;;5017092;28;20183;-68
2021/08/13 02:05:26;;;;;;;26.63;21.50;;;;;;;;;;5022875;28;20310;-68
2021/08/13 02:07:52;;;;;;;26.23;21.25;;;;;;;;;;5030595;28;20272;-68
2021/08/13 02:10:19;;;;;;;27.20;20.98;;;;;;;;;;5023244;28;20193;-69
2021/08/13 02:12:44;;;;;;;25.20;20.50;;;;;;;;;;5016014;28;20650;-69
2021/08/13 02:15:11;;;;;;;24.98;20.80;;;;;;;;;;5021687;28;20182;-68
2021/08/13 02:17:47;;;;;;;25.55;20.88;;;;;;;;;;5022495;28;20649;-68
2021/08/13 02:20:19;;;;;;;25.70;21.13;;;;;;;;;;5023062;28;20178;-68
2021/08/13 02:22:44;;;;;;;27.17;20.95;;;;;;;;;;5020551;28;20190;-68
2021/08/13 02:25:10;;;;;;;26.60;22.00;;;;;;;;;;5020320;28;20701;-69
2021/08/13 02:27:35;;;;;;;26.73;22.02;;;;;;;;;;5026124;28;20681;-68
2021/08/13 02:30:01;;;;;;;27.15;22.05;;;;;;;;;;5020961;28;20186;-68
2021/08/13 02:32:27;;;;;;;26.23;20.80;;;;;;;;;;5019642;28;20407;-68
2021/08/13 02:34:53;;;;;;;30.55;22.27;;;;;;;;;;5021678;28;20276;-69
2021/08/13 02:37:44;;;;;;;23.85;20.50;;;;;;;;;;5025908;28;20818;-69
2021/08/13 02:40:15;;;;;;;27.92;22.00;;;;;;;;;;5025232;28;20225;-68
2021/08/13 02:42:47;;;;;;;26.77;21.23;;;;;;;;;;5042406;28;20170;-68
2021/08/13 02:45:15;;;;;;;28.00;21.40;;;;;;;;;;5015903;28;20255;-68
2021/08/13 02:47:43;;;;;;;24.52;19.55;;;;;;;;;;5025775;28;20181;-68
2021/08/13 02:50:10;;;;;;;26.52;19.92;;;;;;;;;;5013310;28;20265;-68
2021/08/13 02:52:52;;;;;;;23.58;20.10;;;;;;;;;;5026660;28;20186;-68
2021/08/13 02:55:24;;;;;;;23.45;18.90;;;;;;;;;;5017073;28;20232;-68
2021/08/13 02:57:54;;;;;;;27.13;19.98;;;;;;;;;;5027427;28;20178;-68
2021/08/13 03:00:20;;;;;;;27.15;20.10;;;;;;;;;;5017037;28;20763;-68
2021/08/13 03:02:48;;;;;;;23.67;19.13;;;;;;;;;;5025208;28;20197;-69
2021/08/13 03:05:15;;;;;;;28.50;21.65;;;;;;;;;;5017108;28;20368;-68
2021/08/13 03:07:40;;;;;;;25.45;20.27;;;;;;;;;;5029913;28;20564;-69
2021/08/13 03:10:08;;;;;;;26.50;20.33;;;;;;;;;;5013431;28;20193;-69
2021/08/13 03:12:36;;;;;;;24.30;20.15;;;;;;;;;;5027743;28;20194;-69
2021/08/13 03:15:02;;;;;;;25.60;19.70;;;;;;;;;;5012761;28;20190;-68
2021/08/13 03:17:29;;;;;;;27.65;20.27;;;;;;;;;;5025828;28;20190;-68
2021/08/13 03:19:54;;;;;;;24.42;19.90;;;;;;;;;;5013785;28;20189;-68
2021/08/13 03:22:21;;;;;;;25.98;20.50;;;;;;;;;;5019263;28;20205;-68
2021/08/13 03:24:47;;;;;;;24.25;19.42;;;;;;;;;;5020055;28;20629;-68
2021/08/13 03:27:13;;;;;;;29.83;19.98;;;;;;;;;;5013536;28;20324;-68
2021/08/13 03:29:38;;;;;;;26.63;20.52;;;;;;;;;;5022199;28;20662;-68
2021/08/13 03:32:04;;;;;;;25.58;21.45;;;;;;;;;;5017377;28;20186;-69
2021/08/13 03:34:30;;;;;;;25.58;20.35;;;;;;;;;;5029269;28;20185;-69
2021/08/13 03:36:57;;;;;;;23.98;20.05;;;;;;;;;;5016684;28;20228;-69
2021/08/13 03:39:23;;;;;;;27.05;21.38;;;;;;;;;;5021479;28;20254;-69
2021/08/13 03:41:48;;;;;;;28.00;21.20;;;;;;;;;;5013268;28;20216;-68
2021/08/13 03:44:14;;;;;;;24.05;19.90;;;;;;;;;;5019175;28;20200;-68
2021/08/13 03:46:39;;;;;;;27.00;21.30;;;;;;;;;;5012124;28;20553;-68
2021/08/13 03:49:04;;;;;;;28.42;22.35;;;;;;;;;;5026706;28;20166;-69
2021/08/13 03:51:30;;;;;;;28.30;21.33;;;;;;;;;;5020623;28;20186;-69
2021/08/13 03:53:55;;;;;;;23.52;19.48;;;;;;;;;;5023768;28;20277;-68
2021/08/13 03:56:20;;;;;;;28.30;21.83;;;;;;;;;;5026325;28;20182;-69
2021/08/13 03:58:46;;;;;;;23.70;20.05;;;;;;;;;;5013216;28;20195;-69
2021/08/13 04:01:11;;;;;;;22.83;20.33;;;;;;;;;;5021350;28;20280;-69
2021/08/13 04:03:36;;;;;;;24.05;19.17;;;;;;;;;;5015439;28;20222;-69
2021/08/13 04:06:03;;;;;;;28.10;19.23;;;;;;;;;;5025298;28;20233;-68
2021/08/13 04:08:28;;;;;;;28.67;21.00;;;;;;;;;;5017097;28;20653;-69
2021/08/13 04:10:53;;;;;;;26.25;19.60;;;;;;;;;;5025929;28;20289;-68
2021/08/13 04:13:19;;;;;;;23.77;19.38;;;;;;;;;;5013568;28;20198;-68
2021/08/13 04:15:45;;;;;;;24.67;18.45;;;;;;;;;;5024717;28;20184;-69
2021/08/13 04:18:11;;;;;;;26.35;20.83;;;;;;;;;;5018438;28;20182;-69
2021/08/13 04:20:36;;;;;;;28.27;21.23;;;;;;;;;;5018305;28;20209;-69
2021/08/13 04:23:02;;;;;;;29.42;21.30;;;;;;;;;;5026103;28;20178;-69
2021/08/13 04:25:27;;;;;;;31.38;23.75;;;;;;;;;;5015888;28;20296;-69
2021/08/13 04:27:52;;;;;;;27.63;23.17;;;;;;;;;;5024707;28;20192;-69
2021/08/13 04:30:18;;;;;;;26.65;20.85;;;;;;;;;;5013089;28;20186;-69
2021/08/13 04:32:43;;;;;;;25.88;21.10;;;;;;;;;;5025400;28;20634;-69
2021/08/13 04:35:09;;;;;;;28.17;21.98;;;;;;;;;;5009225;28;20566;-69
2021/08/13 04:37:35;;;;;;;27.15;21.67;;;;;;;;;;5022838;28;20204;-69
2021/08/13 04:40:00;;;;;;;26.50;20.48;;;;;;;;;;5016322;28;20269;-69
2021/08/13 04:42:25;;;;;;;24.80;21.92;;;;;;;;;;5024049;28;20185;-69
2021/08/13 04:44:51;;;;;;;26.95;20.88;;;;;;;;;;5009218;28;20723;-69
2021/08/13 04:47:16;;;;;;;27.85;20.55;;;;;;;;;;5021944;28;20201;-69
2021/08/13 04:49:42;;;;;;;26.08;20.83;;;;;;;;;;5029898;28;20190;-69
2021/08/13 04:52:07;;;;;;;29.67;21.83;;;;;;;;;;5021121;28;20182;-69
2021/08/13 04:54:34;;;;;;;25.08;21.75;;;;;;;;;;5021078;28;20634;-69
2021/08/13 04:57:02;;;;;;;26.42;21.02;;;;;;;;;;5015159;28;20556;-69
2021/08/13 04:59:28;;;;;;;26.33;21.00;;;;;;;;;;5018262;28;20300;-69
2021/08/13 05:01:53;;;;;;;27.38;20.88;;;;;;;;;;5012980;28;20341;-69
2021/08/13 05:04:19;;;;;;;25.17;19.98;;;;;;;;;;5013422;28;20241;-69
2021/08/13 05:06:44;;;;;;;26.95;21.13;;;;;;;;;;5011749;28;20218;-69
2021/08/13 05:09:10;;;;;;;24.67;20.02;;;;;;;;;;5017644;28;20235;-69
2021/08/13 05:11:36;;;;;;;26.42;19.27;;;;;;;;;;5017257;28;20197;-69
2021/08/13 05:14:01;;;;;;;23.55;19.50;;;;;;;;;;5023531;28;20182;-69
2021/08/13 05:16:27;;;;;;;23.23;20.20;;;;;;;;;;5019348;28;20269;-70
2021/08/13 05:18:52;;;;;;;24.85;19.67;;;;;;;;;;5022731;28;20248;-69
2021/08/13 05:21:17;;;;;;;28.20;21.08;;;;;;;;;;5020797;28;20319;-69
2021/08/13 05:23:43;;;;;;;26.88;21.55;;;;;;;;;;5022059;28;20191;-69
2021/08/13 05:26:08;;;;;;;29.02;23.45;;;;;;;;;;5023088;28;20210;-69
2021/08/13 05:28:34;;;;;;;28.20;24.20;;;;;;;;;;5012653;28;20182;-69
2021/08/13 05:30:59;;;;;;;29.95;23.55;;;;;;;;;;5036872;28;20280;-69
2021/08/13 05:33:24;;;;;;;30.85;22.92;;;;;;;;;;5009808;28;20194;-69
2021/08/13 05:35:50;;;;;;;29.65;22.02;;;;;;;;;;5021643;28;20256;-69
2021/08/13 05:38:15;;;;;;;27.73;21.45;;;;;;;;;;5009685;28;20203;-69
2021/08/13 05:40:41;;;;;;;23.38;20.25;;;;;;;;;;5025607;28;20186;-69
2021/08/13 05:43:06;;;;;;;23.98;21.10;;;;;;;;;;5008041;28;20186;-69
2021/08/13 05:45:32;;;;;;;26.02;20.90;;;;;;;;;;5054721;28;20202;-69
2021/08/13 05:47:57;;;;;;;27.60;22.35;;;;;;;;;;5012047;28;20190;-69
2021/08/13 05:50:23;;;;;;;28.13;22.63;;;;;;;;;;5017607;28;20277;-69
2021/08/13 05:52:48;;;;;;;29.38;23.83;;;;;;;;;;5011573;28;20432;-69
2021/08/13 05:55:14;;;;;;;27.52;23.33;;;;;;;;;;5019188;28;20186;-69
2021/08/13 05:57:40;;;;;;;26.70;23.48;;;;;;;;;;5019648;28;20554;-69
2021/08/13 06:00:07;;;;;;;26.70;23.80;;;;;;;;;;5011862;28;20234;-69
2021/08/13 06:02:32;;;;;;;30.77;24.88;;;;;;;;;;5018165;28;20642;-69
2021/08/13 06:04:58;;;;;;;30.15;24.77;;;;;;;;;;5011444;28;20264;-69
2021/08/13 06:07:24;;;;;;;31.60;24.55;;;;;;;;;;5012636;28;20191;-69
2021/08/13 06:09:49;;;;;;;28.23;24.25;;;;;;;;;;5017177;28;20201;-69
2021/08/13 06:12:14;;;;;;;27.83;24.55;;;;;;;;;;5022379;28;20256;-69
2021/08/13 06:14:40;;;;;;;28.42;22.83;;;;;;;;;;5018748;28;20646;-69
2021/08/13 06:17:06;;;;;;;31.17;25.15;;;;;;;;;;5021987;28;20189;-69
2021/08/13 06:19:32;;;;;;;26.08;22.30;;;;;;;;;;5013135;28;20598;-69
2021/08/13 06:21:57;;;;;;;30.77;23.80;;;;;;;;;;5023714;28;20202;-69
2021/08/13 06:24:23;;;;;;;30.08;23.50;;;;;;;;;;5020352;28;20174;-69
2021/08/13 06:26:48;;;;;;;28.75;23.50;;;;;;;;;;5015791;28;20265;-69
2021/08/13 06:29:14;;;;;;;28.77;23.70;;;;;;;;;;5017281;28;20198;-69
2021/08/13 06:31:39;;;;;;;30.33;22.63;;;;;;;;;;5016330;28;20198;-69
2021/08/13 06:34:04;;;;;;;32.88;22.45;;;;;;;;;;5021671;28;20259;-69
2021/08/13 06:36:29;;;;;;;27.65;22.60;;;;;;;;;;5013402;28;20198;-69
2021/08/13 06:38:55;;;;;;;26.70;22.05;;;;;;;;;;5019633;28;20652;-69
2021/08/13 06:41:20;;;;;;;35.10;21.77;;;;;;;;;;5011920;28;20195;-69
2021/08/13 06:43:46;;;;;;;33.60;21.35;;;;;;;;;;5028378;28;20665;-69
2021/08/13 06:46:11;;;;;;;29.05;20.70;;;;;;;;;;5015609;28;20211;-69
2021/08/13 06:48:37;;;;;;;25.98;20.50;;;;;;;;;;5025928;28;20182;-70
2021/08/13 06:51:02;;;;;;;25.88;19.45;;;;;;;;;;5013602;28;20212;-69
2021/08/13 06:53:27;;;;;;;25.70;20.45;;;;;;;;;;5025071;28;20200;-69
2021/08/13 06:55:53;;;;;;;23.95;19.35;;;;;;;;;;5024722;28;20527;-69
2021/08/13 06:58:18;;;;;;;25.88;20.27;;;;;;;;;;5017494;28;22328;-69
2021/08/13 07:00:44;;;;;;;27.70;20.13;;;;;;;;;;5023839;28;20305;-69
2021/08/13 07:03:09;;;;;;;24.48;20.20;;;;;;;;;;5015447;28;20209;-69
2021/08/13 07:05:34;;;;;;;26.75;20.35;;;;;;;;;;5022545;28;20296;-69
2021/08/13 07:08:07;;;;;;;25.13;18.90;;;;;;;;;;5013528;28;20194;-69
2021/08/13 07:10:32;;;;;;;26.15;18.65;;;;;;;;;;5019967;28;20197;-69
2021/08/13 07:12:58;;;;;;;23.55;18.23;;;;;;;;;;5016839;28;20190;-69
2021/08/13 07:15:24;;;;;;;21.30;18.08;;;;;;;;;;5023074;28;20182;-69
2021/08/13 07:17:49;;;;;;;21.67;17.90;;;;;;;;;;5003112;28;20190;-69
2021/08/13 07:20:14;;;;;;;21.08;17.00;;;;;;;;;;5017580;28;20645;-69
2021/08/13 07:22:40;;;;;;;20.55;15.90;;;;;;;;;;5015696;28;20547;-69
2021/08/13 07:25:06;;;;;;;23.98;17.10;;;;;;;;;;5016196;28;20211;-69
2021/08/13 07:27:33;;;;;;;22.08;16.58;;;;;;;;;;5014688;28;20197;-69
2021/08/13 07:29:58;;;;;;;21.63;16.90;;;;;;;;;;5011682;28;20191;-69
2021/08/13 07:32:24;;;;;;;24.08;16.48;;;;;;;;;;5018689;28;20668;-69
2021/08/13 07:34:49;;;;;;;20.80;16.52;;;;;;;;;;5009169;28;20197;-69
2021/08/13 07:37:15;;;;;;;21.63;16.10;;;;;;;;;;5017257;28;20239;-69
2021/08/13 07:39:40;;;;;;;20.73;16.58;;;;;;;;;;5005034;28;20193;-69
2021/08/13 07:42:05;;;;;;;17.88;14.85;;;;;;;;;;5017971;28;20588;-69
2021/08/13 07:44:31;;;;;;;17.90;14.50;;;;;;;;;;5004973;28;20186;-69
2021/08/13 07:46:56;;;;;;;21.52;15.10;;;;;;;;;;5016592;28;20261;-69
2021/08/13 07:49:21;;;;;;;21.58;14.20;;;;;;;;;;5009446;28;20243;-70
2021/08/13 07:51:47;;;;;;;19.52;14.20;;;;;;;;;;5021132;28;20193;-69
2021/08/13 07:54:12;;;;;;;18.45;13.98;;;;;;;;;;5011182;28;20179;-69
2021/08/13 07:56:37;;;;;;;16.92;12.93;;;;;;;;;;5019665;28;20167;-70
2021/08/13 07:59:03;;;;;;;17.63;12.85;;;;;;;;;;5012872;28;20211;-70
2021/08/13 08:01:28;;;;;;;19.95;13.65;;;;;;;;;;5013460;28;20705;-69
2021/08/13 08:03:53;;;;;;;16.05;12.45;;;;;;;;;;5017890;28;20197;-69
2021/08/13 08:06:19;;;;;;;16.77;13.25;;;;;;;;;;5006400;28;20228;-69
2021/08/13 08:08:44;;;;;;;21.02;14.65;;;;;;;;;;5015506;28;20693;-69
2021/08/13 08:11:10;;;;;;;19.70;13.90;;;;;;;;;;5012933;28;20229;-69
2021/08/13 08:13:35;;;;;;;19.33;13.82;;;;;;;;;;5020650;28;20266;-69
2021/08/13 08:16:03;;;;;;;17.52;12.63;;;;;;;;;;5016271;28;20197;-69
2021/08/13 08:18:29;;;;;;;17.08;13.25;;;;;;;;;;4324505;28;10000853;-69
2021/08/13 08:20:55;;;;;;;16.80;13.38;;;;;;;;;;5011859;28;20742;-69
2021/08/13 08:23:20;;;;;;;14.98;12.32;;;;;;;;;;5014833;28;20266;-69
2021/08/13 08:25:46;;;;;;;16.73;12.13;;;;;;;;;;5019126;28;20198;-69
2021/08/13 08:28:11;;;;;;;12.80;11.32;;;;;;;;;;5007905;28;20548;-70
2021/08/13 08:30:36;;;;;;;11.85;9.95;;;;;;;;;;5014435;28;20178;-70
2021/08/13 08:33:02;;;;;;;14.18;10.90;;;;;;;;;;5004314;28;20195;-69
2021/08/13 08:35:27;;;;;;;11.15;8.50;;;;;;;;;;5014728;28;20186;-69
2021/08/13 08:37:55;;;;;;;10.60;8.50;;;;;;;;;;5007647;28;20668;-70
2021/08/13 08:40:29;;;;;;;9.55;8.43;;;;;;;;;;5020773;28;20191;-69
2021/08/13 08:42:56;;;;;;;10.68;8.13;;;;;;;;;;5009368;28;20201;-69
2021/08/13 08:45:23;;;;;;;10.10;7.13;;;;;;;;;;5021488;28;20730;-69
2021/08/13 08:47:50;;;;;;;10.02;7.15;;;;;;;;;;5007654;28;20281;-70
2021/08/13 08:50:16;;;;;;;8.32;6.05;;;;;;;;;;5019949;28;20212;-70
2021/08/13 08:52:44;;;;;;;9.82;6.10;;;;;;;;;;5008556;28;20182;-70
2021/08/13 08:55:10;;;;;;;9.00;6.35;;;;;;;;;;5022084;28;20183;-69
2021/08/13 08:57:39;;;;;;;10.63;7.00;;;;;;;;;;5009614;28;21106;-70
2021/08/13 09:00:06;;;;;;;11.15;7.40;;;;;;;;;;5017641;28;20234;-70
2021/08/13 09:02:31;;;;;;;9.90;7.05;;;;;;;;;;5012145;28;20193;-70
2021/08/13 09:04:58;;;;;;;9.75;6.95;;;;;;;;;;5014480;28;20836;-69
2021/08/13 09:07:24;;;;;;;9.65;6.22;;;;;;;;;;5017664;28;20284;-71
2021/08/13 09:09:49;;;;;;;9.18;6.63;;;;;;;;;;5012137;28;20328;-69
2021/08/13 09:12:14;;;;;;;9.82;6.45;;;;;;;;;;5012880;28;20267;-69
2021/08/13 09:14:41;;;;;;;6.20;5.60;;;;;;;;;;5013363;28;20277;-70
2021/08/13 09:17:07;;;;;;;8.48;5.57;;;;;;;;;;5014618;28;20665;-69
2021/08/13 09:19:44;;;;;;;6.88;5.03;;;;;;;;;;5014134;28;20651;-69
2021/08/13 09:22:19;;;;;;;6.60;5.22;;;;;;;;;;5018575;28;20197;-70
2021/08/13 09:24:53;;;;;;;7.47;5.05;;;;;;;;;;5017783;28;20200;-69
2021/08/13 09:27:20;;;;;;;6.07;3.95;;;;;;;;;;5017555;28;20201;-70
2021/08/13 09:30:14;;;;;;;4.93;4.13;;;;;;;;;;5018923;28;20194;-69
2021/08/13 09:32:56;;;;;;;4.57;3.78;;;;;;;;;;5024151;28;20333;-70
2021/08/13 09:35:30;;;;;;;3.85;3.30;;;;;;;;;;5012541;28;20182;-71
2021/08/13 09:37:55;;;;;;;4.50;3.90;;;;;;;;;;5024996;28;20190;-70
2021/08/13 09:40:20;;;;;;;4.65;3.50;;;;;;;;;;5012117;28;20206;-69
2021/08/13 09:42:48;;;;;;;4.47;3.42;;;;;;;;;;5021045;28;20260;-70
2021/08/13 09:45:13;;;;;;;6.57;3.75;;;;;;;;;;5011242;28;20669;-71
2021/08/13 09:47:40;;;;;;;6.20;3.95;;;;;;;;;;5023198;28;20240;-70
2021/08/13 09:50:06;;;;;;;8.60;4.60;;;;;;;;;;5015299;28;20269;-70
2021/08/13 09:52:33;;;;;;;6.85;3.80;;;;;;;;;;5022997;28;20192;-68
2021/08/13 09:55:14;;;;;;;5.65;3.95;;;;;;;;;;5018394;28;20197;-70
2021/08/13 09:57:43;;;;;;;5.43;3.33;;;;;;;;;;5019180;28;20641;-70
2021/08/13 10:00:10;;;;;;;6.32;4.05;;;;;;;;;;5027828;28;20241;-71
2021/08/13 10:02:38;;;;;;;5.80;3.67;;;;;;;;;;5019416;28;20181;-71
2021/08/13 10:05:26;;;;;;;4.18;3.22;;;;;;;;;;5028319;28;20187;-70
2021/08/13 10:07:57;;;;;;;6.40;3.67;;;;;;;;;;5016743;28;20233;-69
2021/08/13 10:10:42;;;;;;;4.03;3.42;;;;;;;;;;5022399;28;20662;-69
2021/08/13 10:13:10;;;;;;;7.07;3.65;;;;;;;;;;5018631;28;20277;-68
2021/08/13 10:15:43;;;;;;;4.88;3.67;;;;;;;;;;5020802;28;20534;-70
2021/08/13 10:18:13;;;;;;;6.70;3.67;;;;;;;;;;5017738;28;20183;-70
2021/08/13 10:20:45;;;;;;;5.35;3.17;;;;;;;;;;5026072;28;20194;-69
2021/08/13 10:23:12;;;;;;;4.88;3.50;;;;;;;;;;5015279;28;20189;-69
2021/08/13 10:25:38;;;;;;;4.90;3.63;;;;;;;;;;5028317;28;20214;-69
2021/08/13 10:28:04;;;;;;;4.78;3.40;;;;;;;;;;5017798;28;20197;-70
2021/08/13 10:30:29;;;;;;;4.93;3.28;;;;;;;;;;5022283;28;20190;-72
2021/08/13 10:32:58;;;;;;;7.28;3.80;;;;;;;;;;5016237;28;20649;-71
2021/08/13 10:35:38;;;;;;;4.35;3.72;;;;;;;;;;5018901;28;20200;-69
2021/08/13 10:38:04;;;;;;;7.32;3.75;;;;;;;;;;5014205;28;20209;-70
2021/08/13 10:40:31;;;;;;;6.40;4.15;;;;;;;;;;5015182;28;20241;-70
2021/08/13 10:42:58;;;;;;;6.68;4.55;;;;;;;;;;5017124;28;20663;-70
2021/08/13 10:45:28;;;;;;;5.38;4.18;;;;;;;;;;5023251;28;20202;-69
2021/08/13 10:48:04;;;;;;;7.10;4.50;;;;;;;;;;5027241;28;20188;-71
2021/08/13 10:50:30;;;;;;;5.47;4.63;;;;;;;;;;5018898;28;20275;-69
2021/08/13 10:52:56;;;;;;;5.63;4.20;;;;;;;;;;5020670;28;20185;-69
2021/08/13 10:55:52;;;;;;;8.07;5.00;;;;;;;;;;5009666;28;20186;-69
2021/08/13 10:58:37;;;;;;;8.38;5.22;;;;;;;;;;5013066;28;20543;-71
2021/08/13 11:01:05;;;;;;;8.38;5.18;;;;;;;;;;5015006;28;20226;-69
2021/08/13 11:03:30;;;;;;;6.13;4.93;;;;;;;;;;5021999;28;20325;-70
2021/08/13 11:06:00;;;;;;;6.35;4.35;;;;;;;;;;5012144;28;20338;-70
2021/08/13 11:08:41;;;;;;;8.07;5.10;;;;;;;;;;5013025;28;20186;-71
2021/08/13 11:11:13;;;;;;;7.80;4.68;;;;;;;;;;5011672;28;20653;-70
2021/08/13 11:13:41;;;;;;;7.40;4.90;;;;;;;;;;5020060;28;20202;-69
2021/08/13 11:16:29;;;;;;;9.02;4.78;;;;;;;;;;5009440;28;20799;-68
2021/08/13 11:18:58;;;;;;;7.85;4.78;;;;;;;;;;5018806;28;20317;-69
2021/08/13 11:21:38;;;;;;;7.35;4.50;;;;;;;;;;5009249;28;20205;-69
2021/08/13 11:24:06;;;;;;;5.75;4.70;;;;;;;;;;5015217;28;20284;-70
2021/08/13 11:26:50;;;;;;;5.07;4.30;;;;;;;;;;5012498;28;20199;-69
2021/08/13 11:29:27;;;;;;;6.65;4.65;;;;;;;;;;5014649;28;20768;-70
2021/08/13 11:31:53;;;;;;;7.55;4.50;;;;;;;;;;5009497;28;20190;-69
2021/08/13 11:34:52;;;;;;;5.63;4.07;;;;;;;;;;5015876;28;20194;-70
2021/08/13 11:37:38;;;;;;;9.15;4.72;;;;;;;;;;5008532;28;20190;-69
2021/08/13 11:40:05;;;;;;;8.77;5.22;;;;;;;;;;5013778;28;20190;-70
2021/08/13 11:42:31;;;;;;;6.72;5.05;;;;;;;;;;5006403;28;20202;-72
2021/08/13 11:45:07;;;;;;;7.32;5.40;;;;;;;;;;5013272;28;20557;-70
2021/08/13 11:47:34;;;;;;;7.97;5.30;;;;;;;;;;5006097;28;20178;-69
2021/08/13 11:50:07;;;;;;;9.68;5.22;;;;;;;;;;5020500;28;20186;-71
2021/08/13 11:52:35;;;;;;;8.45;6.43;;;;;;;;;;5010418;28;20281;-71
2021/08/13 11:55:16;;;;;;;8.20;5.72;;;;;;;;;;5017222;28;20205;-70
2021/08/13 11:57:42;;;;;;;8.90;5.80;;;;;;;;;;5036500;28;20194;-69
2021/08/13 12:00:16;;;;;;;9.05;5.43;;;;;;;;;;5016311;28;20280;-71
2021/08/13 12:02:41;;;;;;;10.35;5.63;;;;;;;;;;5010489;28;20193;-70
2021/08/13 12:05:09;;;;;;;6.75;5.00;;;;;;;;;;5020445;28;20509;-70
2021/08/13 12:07:35;;;;;;;9.45;5.50;;;;;;;;;;5017761;28;20611;-70
2021/08/13 12:10:11;;;;;;;8.48;5.75;;;;;;;;;;5016053;28;20190;-70
2021/08/13 12:12:37;;;;;;;8.48;5.55;;;;;;;;;;5015613;28;20662;-70
2021/08/13 12:15:03;;;;;;;10.02;5.60;;;;;;;;;;5016411;28;20255;-69
2021/08/13 12:17:28;;;;;;;7.95;5.75;;;;;;;;;;5024707;28;20247;-70
2021/08/13 12:19:56;;;;;;;16.08;5.97;;;;;;;;;;5010587;28;20198;-68
2021/08/13 12:22:36;;;;;;;9.88;7.43;;;;;;;;;;5022130;28;20179;-68
2021/08/13 12:25:04;;;;;;;7.95;4.97;;;;;;;;;;5005206;28;20205;-68
2021/08/13 12:27:31;;;;;;;11.13;6.75;;;;;;;;;;5013858;28;20248;-69
2021/08/13 12:29:57;;;;;;;10.00;6.05;;;;;;;;;;5010817;28;20599;-68
2021/08/13 12:32:36;;;;;;;10.13;7.03;;;;;;;;;;5016300;28;20179;-69
2021/08/13 12:35:03;;;;;;;11.93;6.20;;;;;;;;;;5009564;28;20217;-68
2021/08/13 12:37:28;;;;;;;8.63;5.63;;;;;;;;;;5019450;28;20194;-68
2021/08/13 12:39:58;;;;;;;12.60;6.72;;;;;;;;;;5010034;28;20284;-70
2021/08/13 12:42:24;;;;;;;9.23;6.00;;;;;;;;;;5014276;28;20589;-70
2021/08/13 12:44:49;;;;;;;9.77;5.63;;;;;;;;;;5007434;28;20190;-68
2021/08/13 12:47:15;;;;;;;9.80;5.93;;;;;;;;;;5023456;28;20293;-68
2021/08/13 12:49:42;;;;;;;8.80;5.47;;;;;;;;;;5010459;28;20198;-69
2021/08/13 12:52:13;;;;;;;9.20;5.72;;;;;;;;;;5022693;28;20205;-68
2021/08/13 12:54:40;;;;;;;11.13;5.22;;;;;;;;;;5011195;28;20185;-69
2021/08/13 12:57:13;;;;;;;6.32;4.90;;;;;;;;;;5025666;28;20186;-69
2021/08/13 12:59:45;;;;;;;7.03;5.13;;;;;;;;;;5020479;28;20221;-68
2021/08/13 13:02:24;;;;;;;10.20;4.68;;;;;;;;;;5030009;28;20555;-71
2021/08/13 13:05:13;;;;;;;10.82;5.82;;;;;;;;;;5018664;28;20646;-68
2021/08/13 13:07:40;;;;;;;6.60;4.65;;;;;;;;;;5024047;28;20221;-71
2021/08/13 13:10:17;;;;;;;9.73;4.82;;;;;;;;;;5022693;28;20182;-68
2021/08/13 13:12:43;;;;;;;8.25;4.45;;;;;;;;;;5019529;28;20185;-68
2021/08/13 13:15:24;;;;;;;7.55;4.78;;;;;;;;;;5020555;28;20239;-68
2021/08/13 13:17:56;;;;;;;8.32;4.80;;;;;;;;;;5007600;28;20200;-68
2021/08/13 13:20:22;;;;;;;10.93;4.88;;;;;;;;;;5021143;28;20196;-68
2021/08/13 13:23:01;;;;;;;12.15;5.35;;;;;;;;;;5013906;28;20206;-68
2021/08/13 13:25:36;;;;;;;10.55;5.20;;;;;;;;;;5022825;28;20263;-69
2021/08/13 13:28:03;;;;;;;9.88;5.32;;;;;;;;;;5015510;28;20273;-67
2021/08/13 13:30:33;;;;;;;9.60;4.95;;;;;;;;;;5023871;28;20190;-68
2021/08/13 13:33:02;;;;;;;9.35;5.30;;;;;;;;;;5010428;28;20194;-68
2021/08/13 13:35:28;;;;;;;9.18;4.93;;;;;;;;;;5018115;28;20174;-68
2021/08/13 13:37:56;;;;;;;8.38;4.63;;;;;;;;;;5011432;28;20198;-68
2021/08/13 13:40:21;;;;;;;7.53;5.28;;;;;;;;;;5018838;28;20183;-68
2021/08/13 13:42:46;;;;;;;9.32;5.68;;;;;;;;;;5017927;28;20181;-69
2021/08/13 13:45:14;;;;;;;8.77;5.72;;;;;;;;;;5020698;28;20541;-69
2021/08/13 13:47:39;;;;;;;6.82;4.85;;;;;;;;;;5012484;28;20185;-68
2021/08/13 13:50:06;;;;;;;10.77;4.82;;;;;;;;;;5020742;28;20193;-68
2021/08/13 13:52:31;;;;;;;11.05;4.28;;;;;;;;;;5008646;28;20182;-68
2021/08/13 13:54:56;;;;;;;15.68;4.85;;;;;;;;;;5016119;28;20252;-68
2021/08/13 13:57:22;;;;;;;10.15;4.47;;;;;;;;;;5020705;28;20194;-69
2021/08/13 13:59:47;;;;;;;8.15;4.57;;;;;;;;;;5007998;28;20215;-68
2021/08/13 14:02:12;;;;;;;10.73;5.15;;;;;;;;;;5013389;28;20199;-68
2021/08/13 14:04:38;;;;;;;6.00;3.63;;;;;;;;;;5017480;28;20204;-71
2021/08/13 14:07:03;;;;;;;8.23;6.47;;;;;;;;;;5019657;28;20214;-68
2021/08/13 14:09:28;;;;;;;8.13;5.22;;;;;;;;;;5012935;28;20586;-68
2021/08/13 14:11:54;;;;;;;10.80;5.53;;;;;;;;;;5020423;28;20182;-68
2021/08/13 14:14:19;;;;;;;7.35;4.13;;;;;;;;;;5009992;28;20240;-68
2021/08/13 14:16:44;;;;;;;6.70;4.10;;;;;;;;;;5020121;28;20269;-68
2021/08/13 14:19:10;;;;;;;7.72;3.38;;;;;;;;;;5009902;28;20198;-68
2021/08/13 14:21:35;;;;;;;7.13;3.35;;;;;;;;;;5018909;28;20201;-68
2021/08/13 14:24:01;;;;;;;5.90;3.00;;;;;;;;;;5015203;28;20171;-67
2021/08/13 14:26:26;;;;;;;6.40;3.38;;;;;;;;;;5017600;28;20213;-69
2021/08/13 14:28:52;;;;;;;5.32;3.00;;;;;;;;;;5020241;28;20190;-68
2021/08/13 14:31:17;;;;;;;4.25;2.85;;;;;;;;;;5010148;28;20240;-68